Time;durP1;ratioP1;P1;durP2;ratioP2;P2;SDS_P1;SDS_P2;PMS_P1;PMS_P2;Temp;Humidity;BMP_temperature;BMP_pressure;BME280_temperature;BME280_humidity;BME280_pressure;Samples;Min_cycle;Max_cycle;Signal;HPM_P1;HPM_P2
2021/09/11 00:00:34;;;;;;;4.15;3.65;;;24.60;48.60;;;;;;5031880;28;20220;-46
2021/09/11 00:03:01;;;;;;;3.80;3.50;;;24.60;48.60;;;;;;5032882;28;20309;-43
2021/09/11 00:05:28;;;;;;;3.92;3.63;;;24.60;48.60;;;;;;5031051;28;20233;-45
2021/09/11 00:07:54;;;;;;;4.13;3.75;;;24.60;48.70;;;;;;5028662;28;20755;-45
2021/09/11 00:10:21;;;;;;;4.35;3.95;;;24.60;48.70;;;;;;5030774;28;20229;-43
2021/09/11 00:12:47;;;;;;;4.32;3.92;;;24.60;48.60;;;;;;5030615;28;20272;-48
2021/09/11 00:15:14;;;;;;;4.40;3.72;;;24.60;48.70;;;;;;5029605;28;20726;-45
2021/09/11 00:17:40;;;;;;;4.88;3.70;;;24.60;48.60;;;;;;5025051;28;20229;-43
2021/09/11 00:20:07;;;;;;;3.88;3.58;;;24.60;48.60;;;;;;5031695;28;20206;-43
2021/09/11 00:22:33;;;;;;;4.30;3.67;;;24.60;48.60;;;;;;5032952;28;20404;-48
2021/09/11 00:25:00;;;;;;;4.10;3.80;;;24.60;48.70;;;;;;5031106;28;20293;-45
2021/09/11 00:27:26;;;;;;;4.65;3.72;;;24.60;48.70;;;;;;5031037;28;20289;-48
2021/09/11 00:29:52;;;;;;;3.53;3.30;;;24.60;48.70;;;;;;5031337;28;20722;-44
2021/09/11 00:32:19;;;;;;;4.63;3.88;;;24.60;48.60;;;;;;5031935;28;20285;-42
2021/09/11 00:34:45;;;;;;;3.80;3.50;;;24.60;48.70;;;;;;5031265;28;20230;-45
2021/09/11 00:37:12;;;;;;;3.40;3.20;;;24.60;48.60;;;;;;5031391;28;20289;-46
2021/09/11 00:39:38;;;;;;;3.70;3.40;;;24.60;48.60;;;;;;5031217;28;20341;-45
2021/09/11 00:42:05;;;;;;;3.78;3.33;;;24.60;48.60;;;;;;5031568;28;20726;-48
2021/09/11 00:44:31;;;;;;;3.90;3.60;;;24.60;48.60;;;;;;5030948;28;20285;-42
2021/09/11 00:46:58;;;;;;;4.03;3.63;;;24.60;48.60;;;;;;5031154;28;20290;-42
2021/09/11 00:49:24;;;;;;;4.00;3.65;;;24.60;48.70;;;;;;5030783;28;20294;-46
2021/09/11 00:51:50;;;;;;;3.65;3.35;;;24.60;48.60;;;;;;5031911;28;20321;-43
2021/09/11 00:54:17;;;;;;;4.05;3.65;;;24.60;48.70;;;;;;5030339;28;20314;-43
2021/09/11 00:56:43;;;;;;;3.83;3.53;;;24.60;48.60;;;;;;5030388;28;20293;-43
2021/09/11 00:59:10;;;;;;;3.50;3.20;;;24.60;48.60;;;;;;5031649;28;20290;-46
2021/09/11 01:01:36;;;;;;;3.92;3.63;;;24.60;48.60;;;;;;5029993;28;20230;-44
2021/09/11 01:04:03;;;;;;;3.88;3.58;;;24.60;48.70;;;;;;5031106;28;20317;-46
2021/09/11 01:06:29;;;;;;;3.80;3.50;;;24.60;48.60;;;;;;5030618;28;20587;-44
2021/09/11 01:08:56;;;;;;;4.28;3.53;;;24.60;48.60;;;;;;5030254;28;20237;-43
2021/09/11 01:11:22;;;;;;;3.88;3.60;;;24.60;48.70;;;;;;5030472;28;20309;-51
2021/09/11 01:13:49;;;;;;;3.67;3.38;;;24.60;48.70;;;;;;5029649;28;20226;-48
2021/09/11 01:16:15;;;;;;;3.60;3.30;;;24.60;48.70;;;;;;5030228;28;20212;-46
2021/09/11 01:18:41;;;;;;;3.72;3.42;;;24.60;48.70;;;;;;5029947;28;20293;-45
2021/09/11 01:21:08;;;;;;;3.72;3.40;;;24.60;48.70;;;;;;5031875;28;20687;-44
2021/09/11 01:23:34;;;;;;;4.00;3.40;;;24.60;48.60;;;;;;5029470;28;20257;-44
2021/09/11 01:26:01;;;;;;;3.38;3.08;;;24.60;48.70;;;;;;5031482;28;20309;-48
2021/09/11 01:28:29;;;;;;;4.03;3.72;;;24.60;48.70;;;;;;5029089;28;20293;-48
2021/09/11 01:30:55;;;;;;;3.80;3.50;;;24.60;48.70;;;;;;5030356;28;20242;-48
2021/09/11 01:33:23;;;;;;;4.57;3.38;;;24.60;48.70;;;;;;5030366;28;20227;-50
2021/09/11 01:35:49;;;;;;;3.42;3.13;;;24.60;48.70;;;;;;5029316;28;20656;-49
2021/09/11 01:38:15;;;;;;;3.72;3.42;;;24.60;48.70;;;;;;5030473;28;20285;-44
2021/09/11 01:40:42;;;;;;;4.15;3.85;;;24.60;48.80;;;;;;5030081;28;20289;-44
2021/09/11 01:43:08;;;;;;;4.45;3.38;;;24.60;48.80;;;;;;5030850;28;20310;-45
2021/09/11 01:45:35;;;;;;;3.80;3.40;;;24.60;48.80;;;;;;5029803;28;20285;-48
2021/09/11 01:48:01;;;;;;;3.50;3.25;;;24.60;48.80;;;;;;5030008;28;20724;-48
2021/09/11 01:50:28;;;;;;;3.42;3.13;;;24.60;48.80;;;;;;5029900;28;20636;-48
2021/09/11 01:52:54;;;;;;;3.72;3.42;;;24.60;48.90;;;;;;5029428;28;20321;-47
2021/09/11 01:55:21;;;;;;;3.63;3.33;;;24.60;48.90;;;;;;5029581;28;20245;-48
2021/09/11 01:57:48;;;;;;;3.78;3.47;;;24.60;48.90;;;;;;5029619;28;20210;-43
2021/09/11 02:00:15;;;;;;;3.58;3.28;;;24.60;48.80;;;;;;5027169;28;20245;-43
2021/09/11 02:02:41;;;;;;;3.85;3.50;;;24.60;48.80;;;;;;5030448;28;20305;-44
2021/09/11 02:05:08;;;;;;;3.85;3.55;;;24.60;48.80;;;;;;5030429;28;20663;-42
2021/09/11 02:07:34;;;;;;;3.55;3.25;;;24.60;48.90;;;;;;5026014;28;20605;-43
2021/09/11 02:10:02;;;;;;;3.60;3.30;;;24.60;48.80;;;;;;5027729;28;20728;-44
2021/09/11 02:12:28;;;;;;;4.10;3.80;;;24.60;48.90;;;;;;5032390;28;20283;-44
2021/09/11 02:14:55;;;;;;;4.00;3.70;;;24.60;49.00;;;;;;5032006;28;20293;-42
2021/09/11 02:17:21;;;;;;;3.45;3.20;;;24.60;49.00;;;;;;5033816;28;20257;-42
2021/09/11 02:19:48;;;;;;;3.50;3.20;;;24.60;48.90;;;;;;5033708;28;20285;-45
2021/09/11 02:22:14;;;;;;;3.72;3.42;;;24.60;49.00;;;;;;5033683;28;20596;-43
2021/09/11 02:24:41;;;;;;;3.65;3.35;;;24.60;48.80;;;;;;5034488;28;20287;-44
2021/09/11 02:27:07;;;;;;;3.47;3.17;;;24.60;48.90;;;;;;5033868;28;20233;-48
2021/09/11 02:29:33;;;;;;;4.05;3.65;;;24.60;48.90;;;;;;5034165;28;20292;-43
2021/09/11 02:32:01;;;;;;;3.38;3.08;;;24.60;48.90;;;;;;5033269;28;20784;-43
2021/09/11 02:34:28;;;;;;;3.00;2.80;;;24.60;49.00;;;;;;5034061;28;20750;-42
2021/09/11 02:36:55;;;;;;;3.70;3.40;;;24.60;48.90;;;;;;5033431;28;20209;-43
2021/09/11 02:39:21;;;;;;;3.60;3.30;;;24.60;48.90;;;;;;5033694;28;20721;-43
2021/09/11 02:41:48;;;;;;;3.60;3.30;;;24.60;48.90;;;;;;5033256;28;20658;-44
2021/09/11 02:44:14;;;;;;;3.50;3.20;;;24.60;48.90;;;;;;5033019;28;20278;-50
2021/09/11 02:46:41;;;;;;;3.70;3.40;;;24.60;48.90;;;;;;5034230;28;20293;-48
2021/09/11 02:49:07;;;;;;;3.38;3.10;;;24.60;48.90;;;;;;5033076;28;20198;-46
2021/09/11 02:51:34;;;;;;;3.80;3.47;;;24.60;48.90;;;;;;5032695;28;20238;-45
2021/09/11 02:54:00;;;;;;;3.45;3.17;;;24.50;48.90;;;;;;5032065;28;20293;-46
2021/09/11 02:56:27;;;;;;;3.80;3.50;;;24.60;48.90;;;;;;5033675;28;20644;-49
2021/09/11 02:58:53;;;;;;;4.40;3.40;;;24.60;49.00;;;;;;5034194;28;20302;-47
2021/09/11 03:01:20;;;;;;;3.70;3.40;;;24.60;49.00;;;;;;5031910;28;20209;-48
2021/09/11 03:03:46;;;;;;;3.47;3.17;;;24.60;49.00;;;;;;5033701;28;20261;-48
2021/09/11 03:06:12;;;;;;;3.90;3.60;;;24.60;48.90;;;;;;5032936;28;20202;-45
2021/09/11 03:08:39;;;;;;;3.72;3.42;;;24.60;48.90;;;;;;5033500;28;20752;-48
2021/09/11 03:11:05;;;;;;;3.50;3.20;;;24.60;49.00;;;;;;5033116;28;20262;-47
2021/09/11 03:13:32;;;;;;;3.55;3.25;;;24.60;49.10;;;;;;5032506;28;20309;-45
2021/09/11 03:15:58;;;;;;;3.90;3.60;;;24.60;49.10;;;;;;5032843;28;20294;-46
2021/09/11 03:18:25;;;;;;;3.35;3.10;;;24.60;49.10;;;;;;5031882;28;20190;-45
2021/09/11 03:20:51;;;;;;;3.50;3.20;;;24.60;49.10;;;;;;5032327;28;20285;-47
2021/09/11 03:23:18;;;;;;;3.72;3.42;;;24.60;49.10;;;;;;5032625;28;20344;-42
2021/09/11 03:25:44;;;;;;;3.78;3.47;;;24.60;49.00;;;;;;5032482;28;20285;-46
2021/09/11 03:28:11;;;;;;;3.80;3.50;;;24.60;49.10;;;;;;5032643;28;20285;-48
2021/09/11 03:30:37;;;;;;;3.50;3.30;;;24.60;49.10;;;;;;5032465;28;20223;-47
2021/09/11 03:33:03;;;;;;;3.47;3.17;;;24.60;49.10;;;;;;5032542;28;20305;-45
2021/09/11 03:35:30;;;;;;;3.90;3.60;;;24.60;49.00;;;;;;5032452;28;20227;-48
2021/09/11 03:37:56;;;;;;;3.88;3.17;;;24.60;49.00;;;;;;5033032;28;20285;-44
2021/09/11 03:40:23;;;;;;;3.55;3.28;;;24.60;49.00;;;;;;5030145;28;20301;-46
2021/09/11 03:42:49;;;;;;;3.17;2.97;;;24.60;49.00;;;;;;5024389;28;20302;-45
2021/09/11 03:45:16;;;;;;;3.70;3.40;;;24.60;49.10;;;;;;5031812;28;20277;-43
2021/09/11 03:47:42;;;;;;;3.80;3.35;;;24.60;49.10;;;;;;5032874;28;20253;-44
2021/09/11 03:50:09;;;;;;;3.65;3.35;;;24.60;48.90;;;;;;5032299;28;20385;-48
2021/09/11 03:52:35;;;;;;;3.65;3.35;;;24.60;49.00;;;;;;5032833;28;20332;-44
2021/09/11 03:55:03;;;;;;;3.38;3.15;;;24.60;49.00;;;;;;5031934;28;20290;-45
2021/09/11 03:57:30;;;;;;;3.50;3.25;;;24.60;49.00;;;;;;5032907;28;20198;-43
2021/09/11 03:59:56;;;;;;;3.40;3.10;;;24.60;49.00;;;;;;5031689;28;20569;-42
2021/09/11 04:02:23;;;;;;;3.67;3.38;;;24.60;48.90;;;;;;5031445;28;20305;-45
2021/09/11 04:04:49;;;;;;;3.30;3.10;;;24.60;49.00;;;;;;5031715;28;20282;-42
2021/09/11 04:07:15;;;;;;;3.47;3.10;;;24.60;49.00;;;;;;5032815;28;20245;-47
2021/09/11 04:09:42;;;;;;;3.72;3.42;;;24.60;48.90;;;;;;5027253;28;20216;-46
2021/09/11 04:12:08;;;;;;;4.15;3.75;;;24.60;48.90;;;;;;5028345;28;20774;-46
2021/09/11 04:14:35;;;;;;;3.53;3.30;;;24.60;49.00;;;;;;5031548;28;20285;-44
2021/09/11 04:17:02;;;;;;;3.22;2.97;;;24.60;48.90;;;;;;5032584;28;20297;-44
2021/09/11 04:19:29;;;;;;;3.20;2.90;;;24.60;48.90;;;;;;5031672;28;20202;-46
2021/09/11 04:21:55;;;;;;;4.22;3.30;;;24.60;49.00;;;;;;5029702;28;20222;-47
2021/09/11 04:24:21;;;;;;;3.42;3.13;;;24.60;48.90;;;;;;5030714;28;20286;-45
2021/09/11 04:26:48;;;;;;;3.35;3.05;;;24.60;48.90;;;;;;5032869;28;20396;-46
2021/09/11 04:29:14;;;;;;;3.45;3.15;;;24.60;49.00;;;;;;5031163;28;20671;-44
2021/09/11 04:31:41;;;;;;;3.28;3.08;;;24.60;48.90;;;;;;5031477;28;20336;-42
2021/09/11 04:34:07;;;;;;;3.63;3.10;;;24.60;48.90;;;;;;5031055;28;20285;-42
2021/09/11 04:36:34;;;;;;;3.65;3.35;;;24.60;48.90;;;;;;5032638;28;20393;-45
2021/09/11 04:39:00;;;;;;;3.17;2.97;;;24.60;48.90;;;;;;5031002;28;20289;-44
2021/09/11 04:41:27;;;;;;;2.88;2.67;;;24.50;48.80;;;;;;5031212;28;20310;-42
2021/09/11 04:43:53;;;;;;;3.17;2.88;;;24.60;48.90;;;;;;5030980;28;20285;-42
2021/09/11 04:46:19;;;;;;;3.70;3.40;;;24.60;49.00;;;;;;5031542;28;20376;-42
2021/09/11 04:48:46;;;;;;;4.55;3.17;;;24.60;48.90;;;;;;5032565;28;20285;-42
2021/09/11 04:51:12;;;;;;;3.13;2.88;;;24.60;49.00;;;;;;5030730;28;20323;-42
2021/09/11 04:53:39;;;;;;;3.47;3.17;;;24.60;48.90;;;;;;5030257;28;20298;-45
2021/09/11 04:56:05;;;;;;;2.90;2.70;;;24.60;48.80;;;;;;5030329;28;20224;-44
2021/09/11 04:58:32;;;;;;;3.20;3.00;;;24.50;48.80;;;;;;5031779;28;20641;-45
2021/09/11 05:00:58;;;;;;;3.30;3.10;;;24.60;48.90;;;;;;5021834;28;20290;-42
2021/09/11 05:03:25;;;;;;;3.15;2.95;;;24.50;48.80;;;;;;5028885;28;20356;-42
2021/09/11 05:05:51;;;;;;;3.20;2.92;;;24.60;48.90;;;;;;5031514;28;20203;-42
2021/09/11 05:08:19;;;;;;;3.53;3.22;;;24.60;48.90;;;;;;5030684;28;20234;-42
2021/09/11 05:10:46;;;;;;;3.20;3.00;;;24.60;48.90;;;;;;5031716;28;20580;-42
2021/09/11 05:13:12;;;;;;;3.47;3.17;;;24.60;48.80;;;;;;5029958;28;20223;-41
2021/09/11 05:15:39;;;;;;;3.58;3.28;;;24.60;48.90;;;;;;5029926;28;20281;-42
2021/09/11 05:18:05;;;;;;;3.22;2.95;;;24.60;48.90;;;;;;5031999;28;20248;-42
2021/09/11 05:20:32;;;;;;;3.17;2.88;;;24.60;48.80;;;;;;5030621;28;20285;-42
2021/09/11 05:22:59;;;;;;;2.95;2.75;;;24.60;48.90;;;;;;5030080;28;20226;-42
2021/09/11 05:25:25;;;;;;;2.92;2.72;;;24.60;48.90;;;;;;5028797;28;20199;-43
2021/09/11 05:27:52;;;;;;;3.33;3.13;;;24.60;48.90;;;;;;5029523;28;20293;-42
2021/09/11 05:30:19;;;;;;;3.13;2.92;;;24.60;48.90;;;;;;5031406;28;20621;-43
2021/09/11 05:32:46;;;;;;;3.30;3.10;;;24.50;48.80;;;;;;5029840;28;20247;-42
2021/09/11 05:35:12;;;;;;;3.22;2.92;;;24.60;48.90;;;;;;5030617;28;20290;-42
2021/09/11 05:37:38;;;;;;;3.35;3.05;;;24.60;48.90;;;;;;5029554;28;20640;-42
2021/09/11 05:40:05;;;;;;;3.40;3.10;;;24.60;48.90;;;;;;5011577;28;20286;-44
2021/09/11 05:42:31;;;;;;;2.80;2.60;;;24.60;48.90;;;;;;5027993;28;20222;-42
2021/09/11 05:44:59;;;;;;;3.17;2.97;;;24.50;48.80;;;;;;5029568;28;20260;-42
2021/09/11 05:47:25;;;;;;;3.35;3.00;;;24.50;48.70;;;;;;5029857;28;20668;-42
2021/09/11 05:49:52;;;;;;;2.97;2.72;;;24.60;48.90;;;;;;5030176;28;20309;-47
2021/09/11 05:52:18;;;;;;;3.35;3.05;;;24.60;48.90;;;;;;5029521;28;20226;-42
2021/09/11 05:54:45;;;;;;;3.00;2.80;;;24.60;48.90;;;;;;5029181;28;20294;-50
2021/09/11 05:57:12;;;;;;;2.55;2.35;;;24.60;48.90;;;;;;5029983;28;20675;-50
2021/09/11 05:59:38;;;;;;;3.08;2.88;;;24.60;48.80;;;;;;5031036;28;20264;-47
2021/09/11 06:02:04;;;;;;;3.10;2.90;;;24.60;48.80;;;;;;5029819;28;20317;-46
2021/09/11 06:04:31;;;;;;;3.10;2.90;;;24.50;48.80;;;;;;5030056;28;20241;-46
2021/09/11 06:06:57;;;;;;;3.35;3.05;;;24.60;48.90;;;;;;5029329;28;20290;-43
2021/09/11 06:09:24;;;;;;;3.00;2.80;;;24.60;48.90;;;;;;5030776;28;20680;-42
2021/09/11 06:11:50;;;;;;;3.05;2.85;;;24.60;48.90;;;;;;5021547;28;20325;-42
2021/09/11 06:14:17;;;;;;;3.05;2.85;;;24.60;48.90;;;;;;5030533;28;20285;-44
2021/09/11 06:16:43;;;;;;;2.88;2.67;;;24.60;48.90;;;;;;5029331;28;20334;-42
2021/09/11 06:19:10;;;;;;;3.35;3.15;;;24.60;48.80;;;;;;5030672;28;20293;-42
2021/09/11 06:21:36;;;;;;;3.30;3.00;;;24.60;48.80;;;;;;5029710;28;20600;-41
2021/09/11 06:24:03;;;;;;;2.85;2.65;;;24.60;49.00;;;;;;5027750;28;20297;-42
2021/09/11 06:26:29;;;;;;;2.97;2.67;;;24.60;49.10;;;;;;5030581;28;20242;-43
2021/09/11 06:28:55;;;;;;;3.70;2.75;;;24.60;49.00;;;;;;5029659;28;20643;-42
2021/09/11 06:31:22;;;;;;;4.25;2.97;;;24.60;49.30;;;;;;5030592;28;20306;-42
2021/09/11 06:33:48;;;;;;;2.88;2.67;;;24.60;49.40;;;;;;5028980;28;20281;-42
2021/09/11 06:36:15;;;;;;;3.97;2.92;;;24.60;49.50;;;;;;5030391;28;20286;-41
2021/09/11 06:38:42;;;;;;;3.10;2.80;;;24.60;49.50;;;;;;5029257;28;20290;-42
2021/09/11 06:41:08;;;;;;;4.95;3.05;;;24.60;49.40;;;;;;5029975;28;20225;-42
2021/09/11 06:43:34;;;;;;;3.42;2.70;;;24.60;49.40;;;;;;5028345;28;20294;-43
2021/09/11 06:46:01;;;;;;;3.33;3.03;;;24.60;49.40;;;;;;5029369;28;20205;-43
2021/09/11 06:48:27;;;;;;;3.08;2.88;;;24.60;49.40;;;;;;5029446;28;20946;-42
2021/09/11 06:50:55;;;;;;;2.88;2.60;;;24.60;49.40;;;;;;5028893;28;20265;-42
2021/09/11 06:53:21;;;;;;;3.10;2.80;;;24.60;49.40;;;;;;5029256;28;20600;-44
2021/09/11 06:55:48;;;;;;;2.88;2.58;;;24.60;49.40;;;;;;5029356;28;20226;-42
2021/09/11 06:58:14;;;;;;;3.80;2.85;;;24.50;49.40;;;;;;5030294;28;20293;-42
2021/09/11 07:00:41;;;;;;;4.97;3.75;;;24.60;49.50;;;;;;5034320;28;20214;-42
2021/09/11 07:03:07;;;;;;;3.20;3.00;;;24.60;49.50;;;;;;5031885;28;20285;-43
2021/09/11 07:05:34;;;;;;;3.65;3.35;;;24.60;49.50;;;;;;5032556;28;20198;-44
2021/09/11 07:08:00;;;;;;;3.08;2.83;;;24.60;49.40;;;;;;5032892;28;20205;-48
2021/09/11 07:10:26;;;;;;;3.65;3.35;;;24.50;49.30;;;;;;5033699;28;20703;-45
2021/09/11 07:12:53;;;;;;;2.92;2.72;;;24.50;49.30;;;;;;5032312;28;20325;-43
2021/09/11 07:15:19;;;;;;;3.58;3.10;;;24.50;49.40;;;;;;5033750;28;20198;-43
2021/09/11 07:17:46;;;;;;;3.30;2.83;;;24.60;49.40;;;;;;5032362;28;20289;-45
2021/09/11 07:20:13;;;;;;;3.35;3.15;;;24.50;49.30;;;;;;5029678;28;20635;-42
2021/09/11 07:22:39;;;;;;;3.30;3.00;;;24.60;49.50;;;;;;5029993;28;20287;-43
2021/09/11 07:25:06;;;;;;;3.85;3.10;;;24.60;49.50;;;;;;5025683;28;20230;-46
2021/09/11 07:27:32;;;;;;;5.28;2.92;;;24.60;49.30;;;;;;5025345;28;20303;-44
2021/09/11 07:29:59;;;;;;;7.35;3.20;;;24.60;49.60;;;;;;5026528;28;20285;-46
2021/09/11 07:32:26;;;;;;;9.35;3.58;;;24.60;49.70;;;;;;5027119;28;20329;-42
2021/09/11 07:34:53;;;;;;;5.90;3.47;;;24.60;49.30;;;;;;5024894;28;20199;-46
2021/09/11 07:37:19;;;;;;;4.22;3.60;;;24.50;48.70;;;;;;5025303;28;20286;-43
2021/09/11 07:39:47;;;;;;;5.95;3.78;;;24.40;48.00;;;;;;5017787;28;20237;-44
2021/09/11 07:42:13;;;;;;;4.18;3.88;;;24.30;48.10;;;;;;5031851;28;20222;-43
2021/09/11 07:44:40;;;;;;;4.03;3.67;;;24.20;47.80;;;;;;5028671;28;20290;-42
2021/09/11 07:47:06;;;;;;;4.03;3.72;;;24.20;48.40;;;;;;5029064;28;20618;-44
2021/09/11 07:49:33;;;;;;;3.90;3.60;;;24.20;48.40;;;;;;5026639;28;20576;-45
2021/09/11 07:51:59;;;;;;;3.90;3.60;;;24.30;48.40;;;;;;5025630;28;20238;-45
2021/09/11 07:54:26;;;;;;;4.00;3.30;;;24.30;48.30;;;;;;5024309;28;20302;-46
2021/09/11 07:56:52;;;;;;;4.32;3.92;;;24.30;48.00;;;;;;5027543;28;20625;-46
2021/09/11 07:59:19;;;;;;;5.07;3.75;;;24.30;48.30;;;;;;5026001;28;20199;-46
2021/09/11 08:01:45;;;;;;;4.90;4.43;;;24.40;48.60;;;;;;5025686;28;20360;-45
2021/09/11 08:04:11;;;;;;;3.90;3.60;;;24.40;48.70;;;;;;5025044;28;20206;-51
2021/09/11 08:06:38;;;;;;;4.32;3.92;;;24.40;48.30;;;;;;5026126;28;20326;-49
2021/09/11 08:09:04;;;;;;;4.03;3.65;;;24.40;48.30;;;;;;5026154;28;20633;-45
2021/09/11 08:11:31;;;;;;;4.88;3.83;;;24.40;48.00;;;;;;5025930;28;20575;-46
2021/09/11 08:13:57;;;;;;;4.15;3.80;;;24.40;48.00;;;;;;5023945;28;20290;-46
2021/09/11 08:16:24;;;;;;;4.30;3.90;;;24.40;48.10;;;;;;5028774;28;20301;-49
2021/09/11 08:18:50;;;;;;;4.05;3.75;;;24.40;48.00;;;;;;5031630;28;20203;-48
2021/09/11 08:21:17;;;;;;;4.75;4.25;;;24.40;48.10;;;;;;5031659;28;20305;-45
2021/09/11 08:23:43;;;;;;;4.00;3.70;;;24.40;48.00;;;;;;5031172;28;20303;-45
2021/09/11 08:26:10;;;;;;;4.90;3.60;;;24.40;48.00;;;;;;5031812;28;20285;-46
2021/09/11 08:28:36;;;;;;;4.57;4.18;;;24.50;48.10;;;;;;5031665;28;20726;-47
2021/09/11 08:31:02;;;;;;;3.83;3.53;;;24.50;48.10;;;;;;5032084;28;20680;-47
2021/09/11 08:33:29;;;;;;;4.60;4.20;;;24.50;48.10;;;;;;5028602;28;20226;-44
2021/09/11 08:35:55;;;;;;;4.30;3.83;;;24.50;48.10;;;;;;5029643;28;20294;-48
2021/09/11 08:38:22;;;;;;;4.20;3.80;;;24.50;48.10;;;;;;5031047;28;20293;-48
2021/09/11 08:40:48;;;;;;;4.93;3.90;;;24.50;48.10;;;;;;5032004;28;20317;-49
2021/09/11 08:43:15;;;;;;;4.30;3.90;;;24.50;48.10;;;;;;5031079;28;20676;-43
2021/09/11 08:45:41;;;;;;;4.43;4.05;;;24.60;48.20;;;;;;5031670;28;20305;-46
2021/09/11 08:48:08;;;;;;;6.47;3.75;;;24.60;48.20;;;;;;5030979;28;20302;-44
2021/09/11 08:50:34;;;;;;;4.45;4.07;;;24.60;48.20;;;;;;5029305;28;20317;-49
2021/09/11 08:53:01;;;;;;;4.30;3.90;;;24.60;48.20;;;;;;5030349;28;20360;-50
2021/09/11 08:55:27;;;;;;;4.45;4.03;;;24.60;48.20;;;;;;5027211;28;20297;-49
2021/09/11 08:57:54;;;;;;;4.35;3.97;;;24.60;48.20;;;;;;5028398;28;20681;-42
2021/09/11 09:00:20;;;;;;;4.70;4.13;;;24.60;48.20;;;;;;5025646;28;20592;-45
2021/09/11 09:02:47;;;;;;;5.60;4.10;;;24.60;48.20;;;;;;5025937;28;20289;-44
2021/09/11 09:05:13;;;;;;;4.38;3.90;;;24.60;48.20;;;;;;5025611;28;20194;-43
2021/09/11 09:07:40;;;;;;;5.00;4.35;;;24.70;48.30;;;;;;5024921;28;20194;-43
2021/09/11 09:10:06;;;;;;;4.43;4.00;;;24.70;48.30;;;;;;5025702;28;20309;-44
2021/09/11 09:12:33;;;;;;;4.00;3.70;;;24.70;47.80;;;;;;5024739;28;20313;-42
2021/09/11 09:15:00;;;;;;;5.00;4.60;;;24.70;47.60;;;;;;5025162;28;20202;-44
2021/09/11 09:17:26;;;;;;;4.85;4.35;;;24.60;47.20;;;;;;5025243;28;20194;-40
2021/09/11 09:19:52;;;;;;;4.97;4.50;;;24.60;47.50;;;;;;5025792;28;20293;-45
2021/09/11 09:22:20;;;;;;;6.05;4.35;;;24.70;48.30;;;;;;5024645;28;20285;-41
2021/09/11 09:24:47;;;;;;;5.82;4.85;;;24.70;48.10;;;;;;5023920;28;20685;-46
2021/09/11 09:27:13;;;;;;;4.97;4.30;;;24.70;47.70;;;;;;5025284;28;20317;-42
2021/09/11 09:29:44;;;;;;;5.28;4.63;;;24.70;48.30;;;;;;5024770;28;20233;-41
2021/09/11 09:32:11;;;;;;;15.65;6.20;;;24.70;48.30;;;;;;5024274;28;20237;-39
2021/09/11 09:34:38;;;;;;;8.02;5.30;;;24.70;48.40;;;;;;5023649;28;20203;-39
2021/09/11 09:37:04;;;;;;;5.22;4.78;;;24.80;48.50;;;;;;5024568;28;20234;-39
2021/09/11 09:39:31;;;;;;;6.50;5.68;;;24.80;48.40;;;;;;5025088;28;20715;-43
2021/09/11 09:41:57;;;;;;;6.43;4.68;;;24.80;48.40;;;;;;5025130;28;20222;-39
2021/09/11 09:44:24;;;;;;;5.15;4.63;;;24.80;48.40;;;;;;5024180;28;20210;-42
2021/09/11 09:46:50;;;;;;;5.45;4.40;;;24.80;48.40;;;;;;5024756;28;20293;-44
2021/09/11 09:49:17;;;;;;;4.68;4.28;;;24.80;48.40;;;;;;5025136;28;20293;-42
2021/09/11 09:51:44;;;;;;;5.88;5.03;;;24.80;48.40;;;;;;5024681;28;20241;-43
2021/09/11 09:54:10;;;;;;;5.00;4.47;;;24.80;48.40;;;;;;5024605;28;20345;-47
2021/09/11 09:56:37;;;;;;;5.30;4.43;;;24.70;48.30;;;;;;5023450;28;20702;-44
2021/09/11 09:59:03;;;;;;;4.65;4.25;;;24.80;47.90;;;;;;5022977;28;20290;-48
2021/09/11 10:01:30;;;;;;;5.32;4.20;;;24.70;47.90;;;;;;5024735;28;20218;-48
2021/09/11 10:03:56;;;;;;;5.40;4.90;;;24.80;48.10;;;;;;5024270;28;20301;-47
2021/09/11 10:06:23;;;;;;;5.15;4.65;;;24.80;48.10;;;;;;5024577;28;20297;-48
2021/09/11 10:08:49;;;;;;;5.15;4.75;;;24.70;47.50;;;;;;5024761;28;20659;-43
2021/09/11 10:11:16;;;;;;;4.40;4.00;;;24.70;47.60;;;;;;5022641;28;20664;-45
2021/09/11 10:13:42;;;;;;;5.05;4.65;;;24.70;47.40;;;;;;5024767;28;20321;-42
2021/09/11 10:16:09;;;;;;;5.63;4.60;;;24.70;47.70;;;;;;5025499;28;20294;-43
2021/09/11 10:18:36;;;;;;;4.63;4.32;;;24.70;46.50;;;;;;5023981;28;20297;-44
2021/09/11 10:21:02;;;;;;;5.38;4.32;;;24.70;47.60;;;;;;5024897;28;20249;-44
2021/09/11 10:23:29;;;;;;;5.18;4.68;;;24.70;47.40;;;;;;5024528;28;20203;-48
2021/09/11 10:25:55;;;;;;;5.35;4.93;;;24.70;47.10;;;;;;5024993;28;20221;-44
2021/09/11 10:28:22;;;;;;;4.90;4.43;;;24.70;47.10;;;;;;5025342;28;20218;-44
2021/09/11 10:30:48;;;;;;;4.82;4.43;;;24.70;47.10;;;;;;5024165;28;20223;-44
2021/09/11 10:33:15;;;;;;;4.53;4.13;;;24.70;47.50;;;;;;5028808;28;20250;-45
2021/09/11 10:35:41;;;;;;;4.95;4.55;;;24.70;47.60;;;;;;5028175;28;20213;-43
2021/09/11 10:38:08;;;;;;;4.90;4.50;;;24.70;47.30;;;;;;5028885;28;20294;-44
2021/09/11 10:40:34;;;;;;;4.97;4.53;;;24.70;46.80;;;;;;5029095;28;20267;-45
2021/09/11 10:43:01;;;;;;;5.05;4.50;;;24.70;46.90;;;;;;5031280;28;20573;-46
2021/09/11 10:45:28;;;;;;;4.80;4.45;;;24.70;46.50;;;;;;5031808;28;20207;-45
2021/09/11 10:47:55;;;;;;;5.13;4.55;;;24.70;46.90;;;;;;5034394;28;20289;-51
2021/09/11 10:50:21;;;;;;;4.70;4.30;;;24.70;46.90;;;;;;5034319;28;20305;-43
2021/09/11 10:52:47;;;;;;;5.25;4.75;;;24.70;46.60;;;;;;5033114;28;20663;-50
2021/09/11 10:55:14;;;;;;;4.82;4.43;;;24.60;46.50;;;;;;5032395;28;20238;-43
2021/09/11 10:57:40;;;;;;;4.82;4.35;;;24.70;47.10;;;;;;5032921;28;20305;-50
2021/09/11 11:00:07;;;;;;;4.72;4.32;;;24.70;46.80;;;;;;5032866;28;20305;-44
2021/09/11 11:02:33;;;;;;;4.68;4.28;;;24.70;46.70;;;;;;5016189;28;20295;-47
2021/09/11 11:05:00;;;;;;;4.93;4.53;;;24.70;47.60;;;;;;5032087;28;20285;-47
2021/09/11 11:07:26;;;;;;;4.53;4.20;;;24.70;47.10;;;;;;5026853;28;20286;-44
2021/09/11 11:09:53;;;;;;;5.40;4.80;;;24.70;47.50;;;;;;5029557;28;20218;-45
2021/09/11 11:12:19;;;;;;;5.03;4.63;;;24.70;47.40;;;;;;5033385;28;20297;-48
2021/09/11 11:14:46;;;;;;;5.53;4.88;;;24.80;46.90;;;;;;5032428;28;20290;-43
2021/09/11 11:17:12;;;;;;;4.88;4.43;;;24.80;47.20;;;;;;5026815;28;22464;-55
2021/09/11 11:19:39;;;;;;;4.78;4.38;;;24.80;47.20;;;;;;5028378;28;20222;-41
2021/09/11 11:22:05;;;;;;;5.28;4.57;;;24.80;47.10;;;;;;5028426;28;20822;-40
2021/09/11 11:24:32;;;;;;;6.78;4.97;;;24.80;47.40;;;;;;5027145;28;20289;-44
2021/09/11 11:26:58;;;;;;;5.35;4.85;;;24.80;47.50;;;;;;5024333;28;20325;-45
2021/09/11 11:29:24;;;;;;;4.65;4.25;;;24.80;47.60;;;;;;5024363;28;20645;-45
2021/09/11 11:31:51;;;;;;;5.28;4.38;;;24.80;47.40;;;;;;5024996;28;20359;-43
2021/09/11 11:34:17;;;;;;;4.57;4.18;;;24.80;47.60;;;;;;5022693;28;20313;-42
2021/09/11 11:36:44;;;;;;;5.07;4.50;;;24.80;47.70;;;;;;5031794;28;20242;-46
2021/09/11 11:39:10;;;;;;;4.72;4.35;;;24.80;47.60;;;;;;5032316;28;20637;-46
2021/09/11 11:41:37;;;;;;;4.05;3.70;;;24.80;47.60;;;;;;5032677;28;20234;-45
2021/09/11 11:44:03;;;;;;;4.80;4.40;;;24.80;47.60;;;;;;5029999;28;20369;-43
2021/09/11 11:46:30;;;;;;;4.75;4.35;;;24.80;47.60;;;;;;5032426;28;20289;-43
2021/09/11 11:48:56;;;;;;;5.20;4.70;;;24.80;47.70;;;;;;5031763;28;20297;-41
2021/09/11 11:51:23;;;;;;;4.60;4.20;;;24.80;47.60;;;;;;5027013;28;20666;-41
2021/09/11 11:53:49;;;;;;;4.43;4.03;;;24.80;47.80;;;;;;5025106;28;20337;-42
2021/09/11 11:56:16;;;;;;;4.45;4.05;;;24.70;47.80;;;;;;5019891;28;20266;-42
2021/09/11 11:58:42;;;;;;;4.53;4.22;;;24.80;48.00;;;;;;5016987;28;20290;-43
2021/09/11 12:01:08;;;;;;;5.40;3.95;;;24.80;48.00;;;;;;5024105;28;20723;-44
2021/09/11 12:03:35;;;;;;;4.28;3.88;;;24.70;48.00;;;;;;5024663;28;20652;-42
2021/09/11 12:06:01;;;;;;;4.40;4.00;;;24.80;48.10;;;;;;5021217;28;20283;-42
2021/09/11 12:08:28;;;;;;;5.00;4.50;;;24.80;48.10;;;;;;5017962;28;20870;-42
2021/09/11 12:10:54;;;;;;;4.32;3.95;;;24.80;48.20;;;;;;5018080;28;20317;-43
2021/09/11 12:13:21;;;;;;;4.25;3.85;;;24.80;48.10;;;;;;5018950;28;20273;-45
2021/09/11 12:15:47;;;;;;;4.10;3.80;;;24.80;48.20;;;;;;5016975;28;20211;-43
2021/09/11 12:18:14;;;;;;;4.40;4.00;;;24.80;48.20;;;;;;5019712;28;20297;-44
2021/09/11 12:20:40;;;;;;;4.32;3.95;;;24.80;48.20;;;;;;5019332;28;20249;-43
2021/09/11 12:23:07;;;;;;;4.55;4.15;;;24.80;48.30;;;;;;5019257;28;20301;-42
2021/09/11 12:25:33;;;;;;;4.22;3.83;;;24.80;48.30;;;;;;5024186;28;20230;-48
2021/09/11 12:28:00;;;;;;;4.18;3.88;;;24.80;48.30;;;;;;5031859;28;20222;-43
2021/09/11 12:30:26;;;;;;;4.40;4.00;;;24.80;48.40;;;;;;5032026;28;20325;-44
2021/09/11 12:32:53;;;;;;;4.22;3.83;;;24.70;48.30;;;;;;5031347;28;20293;-48
2021/09/11 12:35:19;;;;;;;3.80;3.50;;;24.80;48.40;;;;;;5031027;28;20297;-50
2021/09/11 12:37:46;;;;;;;5.07;4.22;;;24.80;48.40;;;;;;5027319;28;20297;-43
2021/09/11 12:40:12;;;;;;;3.80;3.40;;;24.70;48.30;;;;;;5031456;28;20321;-45
2021/09/11 12:42:39;;;;;;;4.15;3.53;;;24.70;48.30;;;;;;5024684;28;20341;-45